sensor_id;sensor_type;location;lat;lon;timestamp;P1;durP1;ratioP1;P2;durP2;ratioP2
67344;SDS011;54230;52.402;6.276;2022-11-20T00:00:00;35.0;;;27.7;;
67344;SDS011;54230;52.402;6.276;2022-11-20T00:05:00;33.7;;;25.8;;
67344;SDS011;54230;52.402;6.276;2022-11-20T00:10:00;36.9;;;27.8;;
67344;SDS011;54230;52.402;6.276;2022-11-20T00:15:00;39.0;;;29.4;;
67344;SDS011;54230;52.402;6.276;2022-11-20T00:20:00;34.0;;;26.6;;
67344;SDS011;54230;52.402;6.276;2022-11-20T00:25:00;36.0;;;27.6;;
67344;SDS011;54230;52.402;6.276;2022-11-20T00:30:00;38.7;;;29.2;;
67344;SDS011;54230;52.402;6.276;2022-11-20T00:35:00;45.1;;;31.3;;
67344;SDS011;54230;52.402;6.276;2022-11-20T00:40:00;unavailable;;;unavailable;;
67344;SDS011;54230;52.402;6.276;2022-11-20T00:45:00;39.9;;;27.0;;
67344;SDS011;54230;52.402;6.276;2022-11-20T00:50:00;37.7;;;27.2;;
67344;SDS011;54230;52.402;6.276;2022-11-20T00:55:00;37.8;;;28.7;;
67344;SDS011;54230;52.402;6.276;2022-11-20T01:00:00;38.6;;;28.1;;
67344;SDS011;54230;52.402;6.276;2022-11-20T01:05:00;40.2;;;28.6;;
67344;SDS011;54230;52.402;6.276;2022-11-20T01:10:00;33.9;;;26.7;;
67344;SDS011;54230;52.402;6.276;2022-11-20T01:15:00;36.0;;;26.4;;
67344;SDS011;54230;52.402;6.276;2022-11-20T01:20:00;33.3;;;26.5;;
67344;SDS011;54230;52.402;6.276;2022-11-20T01:25:00;31.6;;;25.4;;
67344;SDS011;54230;52.402;6.276;2022-11-20T01:30:00;30.5;;;25.0;;
67344;SDS011;54230;52.402;6.276;2022-11-20T01:35:00;29.6;;;24.3;;
67344;SDS011;54230;52.402;6.276;2022-11-20T01:40:00;29.2;;;25.0;;
67344;SDS011;54230;52.402;6.276;2022-11-20T01:45:00;31.1;;;25.4;;
67344;SDS011;54230;52.402;6.276;2022-11-20T01:50:02;30.8;;;25.0;;
67344;SDS011;54230;52.402;6.276;2022-11-20T01:55:01;29.9;;;23.5;;
67344;SDS011;54230;52.402;6.276;2022-11-20T02:00:02;30.3;;;25.3;;
67344;SDS011;54230;52.402;6.276;2022-11-20T02:05:01;29.5;;;24.0;;
67344;SDS011;54230;52.402;6.276;2022-11-20T02:10:00;32.2;;;26.3;;
67344;SDS011;54230;52.402;6.276;2022-11-20T02:15:00;31.8;;;24.9;;
67344;SDS011;54230;52.402;6.276;2022-11-20T02:20:00;31.1;;;25.4;;
67344;SDS011;54230;52.402;6.276;2022-11-20T02:25:00;33.2;;;26.6;;
67344;SDS011;54230;52.402;6.276;2022-11-20T02:30:00;34.9;;;26.7;;
67344;SDS011;54230;52.402;6.276;2022-11-20T02:35:06;31.5;;;25.3;;
67344;SDS011;54230;52.402;6.276;2022-11-20T02:40:00;34.9;;;27.1;;
67344;SDS011;54230;52.402;6.276;2022-11-20T02:45:00;34.4;;;27.5;;
67344;SDS011;54230;52.402;6.276;2022-11-20T02:50:00;32.6;;;26.0;;
67344;SDS011;54230;52.402;6.276;2022-11-20T02:55:00;31.5;;;26.4;;
67344;SDS011;54230;52.402;6.276;2022-11-20T03:00:00;33.9;;;26.1;;
67344;SDS011;54230;52.402;6.276;2022-11-20T03:05:00;30.1;;;24.6;;
67344;SDS011;54230;52.402;6.276;2022-11-20T03:10:00;32.0;;;25.4;;
67344;SDS011;54230;52.402;6.276;2022-11-20T03:15:00;31.4;;;25.1;;
67344;SDS011;54230;52.402;6.276;2022-11-20T03:20:00;29.4;;;23.2;;
67344;SDS011;54230;52.402;6.276;2022-11-20T03:25:00;29.6;;;25.1;;
67344;SDS011;54230;52.402;6.276;2022-11-20T03:30:00;29.4;;;23.8;;
67344;SDS011;54230;52.402;6.276;2022-11-20T03:35:00;32.1;;;25.8;;
67344;SDS011;54230;52.402;6.276;2022-11-20T03:40:00;28.9;;;23.6;;
67344;SDS011;54230;52.402;6.276;2022-11-20T03:45:00;31.6;;;24.3;;
67344;SDS011;54230;52.402;6.276;2022-11-20T03:50:00;31.1;;;25.2;;
67344;SDS011;54230;52.402;6.276;2022-11-20T03:55:00;33.1;;;25.8;;
67344;SDS011;54230;52.402;6.276;2022-11-20T04:00:00;34.7;;;26.0;;
67344;SDS011;54230;52.402;6.276;2022-11-20T04:05:00;32.6;;;25.9;;
67344;SDS011;54230;52.402;6.276;2022-11-20T04:10:00;33.4;;;25.6;;
67344;SDS011;54230;52.402;6.276;2022-11-20T04:15:00;37.5;;;26.1;;
67344;SDS011;54230;52.402;6.276;2022-11-20T04:20:00;34.2;;;25.7;;
67344;SDS011;54230;52.402;6.276;2022-11-20T04:25:00;41.2;;;25.9;;
67344;SDS011;54230;52.402;6.276;2022-11-20T04:30:00;35.6;;;26.3;;
67344;SDS011;54230;52.402;6.276;2022-11-20T04:35:00;39.3;;;27.1;;
67344;SDS011;54230;52.402;6.276;2022-11-20T04:40:00;38.3;;;25.6;;
67344;SDS011;54230;52.402;6.276;2022-11-20T04:45:00;35.7;;;25.6;;
67344;SDS011;54230;52.402;6.276;2022-11-20T04:50:00;35.9;;;26.2;;
67344;SDS011;54230;52.402;6.276;2022-11-20T04:55:00;33.9;;;26.4;;
67344;SDS011;54230;52.402;6.276;2022-11-20T05:00:00;32.3;;;25.3;;
67344;SDS011;54230;52.402;6.276;2022-11-20T05:05:00;34.6;;;26.6;;
67344;SDS011;54230;52.402;6.276;2022-11-20T05:10:00;32.2;;;24.4;;
67344;SDS011;54230;52.402;6.276;2022-11-20T05:15:00;33.1;;;25.7;;
67344;SDS011;54230;52.402;6.276;2022-11-20T05:20:00;32.7;;;25.3;;
67344;SDS011;54230;52.402;6.276;2022-11-20T05:25:00;36.1;;;27.3;;
67344;SDS011;54230;52.402;6.276;2022-11-20T05:30:00;35.6;;;26.8;;
67344;SDS011;54230;52.402;6.276;2022-11-20T05:35:00;32.6;;;25.6;;
67344;SDS011;54230;52.402;6.276;2022-11-20T05:40:00;33.1;;;25.8;;
67344;SDS011;54230;52.402;6.276;2022-11-20T05:45:00;31.7;;;25.8;;
67344;SDS011;54230;52.402;6.276;2022-11-20T05:50:00;33.4;;;25.7;;
67344;SDS011;54230;52.402;6.276;2022-11-20T05:55:00;33.2;;;25.5;;
67344;SDS011;54230;52.402;6.276;2022-11-20T06:00:00;33.5;;;26.0;;
67344;SDS011;54230;52.402;6.276;2022-11-20T06:05:00;34.7;;;25.1;;
67344;SDS011;54230;52.402;6.276;2022-11-20T06:10:00;33.6;;;25.2;;
67344;SDS011;54230;52.402;6.276;2022-11-20T06:15:00;34.0;;;26.5;;
67344;SDS011;54230;52.402;6.276;2022-11-20T06:20:00;32.9;;;24.3;;
67344;SDS011;54230;52.402;6.276;2022-11-20T06:25:00;36.8;;;28.1;;
67344;SDS011;54230;52.402;6.276;2022-11-20T06:30:00;35.9;;;27.1;;
67344;SDS011;54230;52.402;6.276;2022-11-20T06:35:00;36.2;;;26.5;;
67344;SDS011;54230;52.402;6.276;2022-11-20T06:40:00;36.7;;;27.5;;
67344;SDS011;54230;52.402;6.276;2022-11-20T06:45:00;35.6;;;27.5;;
67344;SDS011;54230;52.402;6.276;2022-11-20T06:50:00;41.0;;;28.1;;
67344;SDS011;54230;52.402;6.276;2022-11-20T06:55:00;37.3;;;26.6;;
67344;SDS011;54230;52.402;6.276;2022-11-20T07:00:00;36.6;;;25.9;;
67344;SDS011;54230;52.402;6.276;2022-11-20T07:05:00;35.1;;;25.4;;
67344;SDS011;54230;52.402;6.276;2022-11-20T07:10:00;35.3;;;27.5;;
67344;SDS011;54230;52.402;6.276;2022-11-20T07:15:00;36.0;;;26.3;;
67344;SDS011;54230;52.402;6.276;2022-11-20T07:20:00;33.1;;;26.1;;
67344;SDS011;54230;52.402;6.276;2022-11-20T07:25:00;36.1;;;26.8;;
67344;SDS011;54230;52.402;6.276;2022-11-20T07:30:00;33.4;;;26.9;;
67344;SDS011;54230;52.402;6.276;2022-11-20T07:35:00;35.6;;;27.3;;
67344;SDS011;54230;52.402;6.276;2022-11-20T07:40:00;34.7;;;25.3;;
67344;SDS011;54230;52.402;6.276;2022-11-20T07:45:00;38.7;;;28.0;;
67344;SDS011;54230;52.402;6.276;2022-11-20T07:50:00;37.7;;;28.9;;
67344;SDS011;54230;52.402;6.276;2022-11-20T07:55:00;37.9;;;27.5;;
67344;SDS011;54230;52.402;6.276;2022-11-20T08:00:00;39.2;;;28.6;;
67344;SDS011;54230;52.402;6.276;2022-11-20T08:05:00;38.2;;;29.1;;
67344;SDS011;54230;52.402;6.276;2022-11-20T08:10:00;39.5;;;29.0;;
67344;SDS011;54230;52.402;6.276;2022-11-20T08:15:00;40.0;;;28.8;;
67344;SDS011;54230;52.402;6.276;2022-11-20T08:20:00;44.0;;;30.8;;
67344;SDS011;54230;52.402;6.276;2022-11-20T08:25:00;44.6;;;31.2;;
67344;SDS011;54230;52.402;6.276;2022-11-20T08:30:00;45.2;;;33.8;;
67344;SDS011;54230;52.402;6.276;2022-11-20T08:35:00;46.4;;;33.5;;
67344;SDS011;54230;52.402;6.276;2022-11-20T08:40:00;43.0;;;33.3;;
67344;SDS011;54230;52.402;6.276;2022-11-20T08:45:00;41.9;;;31.7;;
67344;SDS011;54230;52.402;6.276;2022-11-20T08:50:00;42.1;;;31.6;;
67344;SDS011;54230;52.402;6.276;2022-11-20T08:55:00;41.2;;;30.8;;
67344;SDS011;54230;52.402;6.276;2022-11-20T09:00:00;39.6;;;31.2;;
67344;SDS011;54230;52.402;6.276;2022-11-20T09:05:00;39.6;;;28.8;;
67344;SDS011;54230;52.402;6.276;2022-11-20T09:10:00;39.3;;;30.4;;
67344;SDS011;54230;52.402;6.276;2022-11-20T09:15:00;38.4;;;28.5;;
67344;SDS011;54230;52.402;6.276;2022-11-20T09:20:00;37.4;;;29.0;;
67344;SDS011;54230;52.402;6.276;2022-11-20T09:25:00;38.8;;;29.2;;
67344;SDS011;54230;52.402;6.276;2022-11-20T09:30:00;37.9;;;28.7;;
67344;SDS011;54230;52.402;6.276;2022-11-20T09:35:00;38.7;;;29.7;;
67344;SDS011;54230;52.402;6.276;2022-11-20T09:40:00;38.3;;;29.0;;
67344;SDS011;54230;52.402;6.276;2022-11-20T09:45:04;37.9;;;30.5;;
67344;SDS011;54230;52.402;6.276;2022-11-20T09:50:03;35.9;;;27.8;;
67344;SDS011;54230;52.402;6.276;2022-11-20T09:55:00;37.8;;;28.4;;
67344;SDS011;54230;52.402;6.276;2022-11-20T10:00:00;36.2;;;28.5;;
67344;SDS011;54230;52.402;6.276;2022-11-20T10:05:01;37.1;;;28.9;;
67344;SDS011;54230;52.402;6.276;2022-11-20T10:10:00;33.6;;;27.4;;
67344;SDS011;54230;52.402;6.276;2022-11-20T10:15:05;33.6;;;26.7;;
67344;SDS011;54230;52.402;6.276;2022-11-20T10:20:02;32.3;;;26.5;;
67344;SDS011;54230;52.402;6.276;2022-11-20T10:25:01;33.4;;;27.2;;
67344;SDS011;54230;52.402;6.276;2022-11-20T10:30:00;33.7;;;27.3;;
67344;SDS011;54230;52.402;6.276;2022-11-20T10:35:00;32.8;;;27.0;;
67344;SDS011;54230;52.402;6.276;2022-11-20T10:40:01;31.5;;;25.9;;
67344;SDS011;54230;52.402;6.276;2022-11-20T10:45:02;32.1;;;27.6;;
67344;SDS011;54230;52.402;6.276;2022-11-20T10:50:01;34.0;;;26.7;;
67344;SDS011;54230;52.402;6.276;2022-11-20T10:55:02;31.0;;;24.9;;
67344;SDS011;54230;52.402;6.276;2022-11-20T11:00:01;31.7;;;24.7;;
67344;SDS011;54230;52.402;6.276;2022-11-20T11:05:01;30.6;;;23.4;;
67344;SDS011;54230;52.402;6.276;2022-11-20T11:10:00;29.9;;;23.3;;
67344;SDS011;54230;52.402;6.276;2022-11-20T11:15:00;28.7;;;22.4;;
67344;SDS011;54230;52.402;6.276;2022-11-20T11:20:01;24.6;;;16.3;;
67344;SDS011;54230;52.402;6.276;2022-11-20T11:25:00;24.8;;;14.4;;
67344;SDS011;54230;52.402;6.276;2022-11-20T11:30:02;23.0;;;12.9;;
67344;SDS011;54230;52.402;6.276;2022-11-20T11:35:00;23.0;;;12.3;;
67344;SDS011;54230;52.402;6.276;2022-11-20T11:40:00;20.4;;;11.1;;
67344;SDS011;54230;52.402;6.276;2022-11-20T11:45:00;21.3;;;11.2;;
67344;SDS011;54230;52.402;6.276;2022-11-20T11:50:00;20.6;;;11.0;;
67344;SDS011;54230;52.402;6.276;2022-11-20T11:55:00;18.9;;;11.4;;
67344;SDS011;54230;52.402;6.276;2022-11-20T12:00:01;19.5;;;11.2;;
67344;SDS011;54230;52.402;6.276;2022-11-20T12:05:00;20.7;;;11.6;;
67344;SDS011;54230;52.402;6.276;2022-11-20T12:10:00;21.9;;;11.7;;
67344;SDS011;54230;52.402;6.276;2022-11-20T12:15:00;21.6;;;11.9;;
67344;SDS011;54230;52.402;6.276;2022-11-20T12:20:00;20.4;;;11.8;;
67344;SDS011;54230;52.402;6.276;2022-11-20T12:25:00;22.6;;;12.2;;
67344;SDS011;54230;52.402;6.276;2022-11-20T12:30:00;23.6;;;12.9;;
67344;SDS011;54230;52.402;6.276;2022-11-20T12:35:00;21.8;;;12.7;;
67344;SDS011;54230;52.402;6.276;2022-11-20T12:40:02;21.2;;;11.7;;
67344;SDS011;54230;52.402;6.276;2022-11-20T12:45:06;19.7;;;10.9;;
67344;SDS011;54230;52.402;6.276;2022-11-20T12:50:01;19.4;;;11.4;;
67344;SDS011;54230;52.402;6.276;2022-11-20T12:55:08;19.7;;;11.1;;
67344;SDS011;54230;52.402;6.276;2022-11-20T13:00:02;18.8;;;11.0;;
67344;SDS011;54230;52.402;6.276;2022-11-20T13:05:04;18.8;;;11.1;;
67344;SDS011;54230;52.402;6.276;2022-11-20T13:10:00;18.7;;;10.9;;
67344;SDS011;54230;52.402;6.276;2022-11-20T13:15:02;18.5;;;10.7;;
67344;SDS011;54230;52.402;6.276;2022-11-20T13:20:00;19.9;;;10.9;;
67344;SDS011;54230;52.402;6.276;2022-11-20T13:25:00;18.0;;;10.7;;
67344;SDS011;54230;52.402;6.276;2022-11-20T13:30:01;21.0;;;11.4;;
67344;SDS011;54230;52.402;6.276;2022-11-20T13:35:00;19.2;;;10.2;;
67344;SDS011;54230;52.402;6.276;2022-11-20T13:45:00;17.3;;;10.1;;
67344;SDS011;54230;52.402;6.276;2022-11-20T13:50:00;17.2;;;9.7;;
67344;SDS011;54230;52.402;6.276;2022-11-20T13:55:03;17.7;;;10.0;;
67344;SDS011;54230;52.402;6.276;2022-11-20T14:00:03;17.9;;;10.2;;
67344;SDS011;54230;52.402;6.276;2022-11-20T14:05:00;18.6;;;10.3;;
67344;SDS011;54230;52.402;6.276;2022-11-20T14:10:00;17.5;;;10.1;;
67344;SDS011;54230;52.402;6.276;2022-11-20T14:15:00;20.0;;;11.3;;
67344;SDS011;54230;52.402;6.276;2022-11-20T14:20:01;19.5;;;11.6;;
67344;SDS011;54230;52.402;6.276;2022-11-20T14:25:01;21.1;;;12.0;;
67344;SDS011;54230;52.402;6.276;2022-11-20T14:30:00;21.5;;;12.1;;
67344;SDS011;54230;52.402;6.276;2022-11-20T14:35:02;21.1;;;11.4;;
67344;SDS011;54230;52.402;6.276;2022-11-20T14:40:00;21.6;;;11.5;;
67344;SDS011;54230;52.402;6.276;2022-11-20T14:45:00;22.3;;;12.3;;
67344;SDS011;54230;52.402;6.276;2022-11-20T14:50:00;21.7;;;12.1;;
67344;SDS011;54230;52.402;6.276;2022-11-20T14:55:00;23.0;;;12.4;;
67344;SDS011;54230;52.402;6.276;2022-11-20T15:00:04;22.8;;;12.5;;
67344;SDS011;54230;52.402;6.276;2022-11-20T15:05:00;21.0;;;11.9;;
67344;SDS011;54230;52.402;6.276;2022-11-20T15:10:00;24.3;;;12.4;;
67344;SDS011;54230;52.402;6.276;2022-11-20T15:15:00;23.2;;;12.4;;
67344;SDS011;54230;52.402;6.276;2022-11-20T15:20:00;23.1;;;12.6;;
67344;SDS011;54230;52.402;6.276;2022-11-20T15:25:00;24.9;;;13.3;;
67344;SDS011;54230;52.402;6.276;2022-11-20T15:30:00;26.9;;;14.1;;
67344;SDS011;54230;52.402;6.276;2022-11-20T15:35:00;25.6;;;13.4;;
67344;SDS011;54230;52.402;6.276;2022-11-20T15:40:00;25.5;;;13.9;;
67344;SDS011;54230;52.402;6.276;2022-11-20T15:45:00;28.9;;;14.7;;
67344;SDS011;54230;52.402;6.276;2022-11-20T15:50:00;31.9;;;15.5;;
67344;SDS011;54230;52.402;6.276;2022-11-20T15:55:00;29.7;;;15.2;;
67344;SDS011;54230;52.402;6.276;2022-11-20T16:00:00;30.8;;;15.6;;
67344;SDS011;54230;52.402;6.276;2022-11-20T16:05:00;33.3;;;16.6;;
67344;SDS011;54230;52.402;6.276;2022-11-20T16:10:00;34.1;;;16.6;;
67344;SDS011;54230;52.402;6.276;2022-11-20T16:15:00;34.8;;;17.4;;
67344;SDS011;54230;52.402;6.276;2022-11-20T16:20:00;33.0;;;16.7;;
67344;SDS011;54230;52.402;6.276;2022-11-20T16:25:00;35.2;;;17.3;;
67344;SDS011;54230;52.402;6.276;2022-11-20T16:30:00;34.7;;;16.4;;
67344;SDS011;54230;52.402;6.276;2022-11-20T16:35:00;35.3;;;16.6;;
67344;SDS011;54230;52.402;6.276;2022-11-20T16:40:00;35.6;;;17.3;;
67344;SDS011;54230;52.402;6.276;2022-11-20T16:45:00;38.2;;;17.0;;
67344;SDS011;54230;52.402;6.276;2022-11-20T16:50:00;37.8;;;17.2;;
67344;SDS011;54230;52.402;6.276;2022-11-20T16:55:00;37.1;;;17.4;;
67344;SDS011;54230;52.402;6.276;2022-11-20T17:00:00;36.4;;;18.0;;
67344;SDS011;54230;52.402;6.276;2022-11-20T17:05:00;38.5;;;17.9;;
67344;SDS011;54230;52.402;6.276;2022-11-20T17:10:00;38.6;;;18.6;;
67344;SDS011;54230;52.402;6.276;2022-11-20T17:15:00;41.7;;;19.1;;
67344;SDS011;54230;52.402;6.276;2022-11-20T17:20:00;39.7;;;19.3;;
67344;SDS011;54230;52.402;6.276;2022-11-20T17:25:00;40.0;;;18.8;;
67344;SDS011;54230;52.402;6.276;2022-11-20T17:30:00;38.6;;;18.8;;
67344;SDS011;54230;52.402;6.276;2022-11-20T17:35:00;39.7;;;18.9;;
67344;SDS011;54230;52.402;6.276;2022-11-20T17:40:00;39.4;;;18.2;;
67344;SDS011;54230;52.402;6.276;2022-11-20T17:45:00;40.8;;;19.6;;
67344;SDS011;54230;52.402;6.276;2022-11-20T17:50:00;43.0;;;20.2;;
67344;SDS011;54230;52.402;6.276;2022-11-20T17:55:00;45.3;;;20.4;;
67344;SDS011;54230;52.402;6.276;2022-11-20T18:00:00;43.9;;;19.9;;
67344;SDS011;54230;52.402;6.276;2022-11-20T18:05:00;45.8;;;20.9;;
67344;SDS011;54230;52.402;6.276;2022-11-20T18:10:00;44.4;;;21.1;;
67344;SDS011;54230;52.402;6.276;2022-11-20T18:15:00;47.0;;;21.1;;
67344;SDS011;54230;52.402;6.276;2022-11-20T18:20:00;44.0;;;21.0;;
67344;SDS011;54230;52.402;6.276;2022-11-20T18:25:00;47.1;;;22.8;;
67344;SDS011;54230;52.402;6.276;2022-11-20T18:30:00;47.5;;;23.4;;
67344;SDS011;54230;52.402;6.276;2022-11-20T18:35:00;46.9;;;23.7;;
67344;SDS011;54230;52.402;6.276;2022-11-20T18:40:00;50.2;;;24.9;;
67344;SDS011;54230;52.402;6.276;2022-11-20T18:45:00;46.5;;;25.8;;
67344;SDS011;54230;52.402;6.276;2022-11-20T18:50:00;49.6;;;28.2;;
67344;SDS011;54230;52.402;6.276;2022-11-20T18:55:00;52.1;;;29.6;;
67344;SDS011;54230;52.402;6.276;2022-11-20T19:00:00;54.1;;;31.4;;
67344;SDS011;54230;52.402;6.276;2022-11-20T19:05:00;55.2;;;33.2;;
67344;SDS011;54230;52.402;6.276;2022-11-20T19:10:00;53.7;;;31.6;;
67344;SDS011;54230;52.402;6.276;2022-11-20T19:15:00;52.6;;;30.5;;
67344;SDS011;54230;52.402;6.276;2022-11-20T19:20:00;54.6;;;31.8;;
67344;SDS011;54230;52.402;6.276;2022-11-20T19:25:00;53.1;;;31.8;;
67344;SDS011;54230;52.402;6.276;2022-11-20T19:30:00;55.0;;;31.3;;
67344;SDS011;54230;52.402;6.276;2022-11-20T19:35:00;54.2;;;32.4;;
67344;SDS011;54230;52.402;6.276;2022-11-20T19:40:00;52.8;;;30.6;;
67344;SDS011;54230;52.402;6.276;2022-11-20T19:45:00;49.6;;;27.3;;
67344;SDS011;54230;52.402;6.276;2022-11-20T19:50:00;50.1;;;28.5;;
67344;SDS011;54230;52.402;6.276;2022-11-20T19:55:00;46.0;;;27.6;;
67344;SDS011;54230;52.402;6.276;2022-11-20T20:00:00;46.2;;;28.6;;
67344;SDS011;54230;52.402;6.276;2022-11-20T20:05:00;50.7;;;30.9;;
67344;SDS011;54230;52.402;6.276;2022-11-20T20:10:00;52.8;;;31.8;;
67344;SDS011;54230;52.402;6.276;2022-11-20T20:15:00;51.2;;;31.7;;
67344;SDS011;54230;52.402;6.276;2022-11-20T20:20:00;54.5;;;33.9;;
67344;SDS011;54230;52.402;6.276;2022-11-20T20:25:00;55.2;;;33.2;;
67344;SDS011;54230;52.402;6.276;2022-11-20T20:30:00;56.0;;;32.6;;
67344;SDS011;54230;52.402;6.276;2022-11-20T20:35:00;52.8;;;30.2;;
67344;SDS011;54230;52.402;6.276;2022-11-20T20:40:00;52.9;;;31.9;;
67344;SDS011;54230;52.402;6.276;2022-11-20T20:45:00;52.6;;;30.8;;
67344;SDS011;54230;52.402;6.276;2022-11-20T20:50:00;48.3;;;30.1;;
67344;SDS011;54230;52.402;6.276;2022-11-20T20:55:00;45.0;;;27.1;;
67344;SDS011;54230;52.402;6.276;2022-11-20T21:00:00;46.8;;;26.8;;
67344;SDS011;54230;52.402;6.276;2022-11-20T21:05:00;49.9;;;30.0;;
67344;SDS011;54230;52.402;6.276;2022-11-20T21:10:00;44.3;;;26.9;;
67344;SDS011;54230;52.402;6.276;2022-11-20T21:15:00;47.3;;;29.9;;
67344;SDS011;54230;52.402;6.276;2022-11-20T21:20:00;47.3;;;28.0;;
67344;SDS011;54230;52.402;6.276;2022-11-20T21:25:00;47.8;;;29.7;;
67344;SDS011;54230;52.402;6.276;2022-11-20T21:30:00;46.8;;;29.3;;
67344;SDS011;54230;52.402;6.276;2022-11-20T21:35:00;46.1;;;27.6;;
67344;SDS011;54230;52.402;6.276;2022-11-20T21:40:00;46.7;;;28.1;;
67344;SDS011;54230;52.402;6.276;2022-11-20T21:45:00;45.4;;;29.4;;
67344;SDS011;54230;52.402;6.276;2022-11-20T21:50:00;48.2;;;29.9;;
67344;SDS011;54230;52.402;6.276;2022-11-20T21:55:00;48.5;;;29.7;;
67344;SDS011;54230;52.402;6.276;2022-11-20T22:00:00;49.5;;;28.5;;
67344;SDS011;54230;52.402;6.276;2022-11-20T22:05:00;51.7;;;30.1;;
67344;SDS011;54230;52.402;6.276;2022-11-20T22:10:00;46.4;;;27.4;;
67344;SDS011;54230;52.402;6.276;2022-11-20T22:15:00;47.0;;;27.6;;
67344;SDS011;54230;52.402;6.276;2022-11-20T22:20:00;43.0;;;26.0;;
67344;SDS011;54230;52.402;6.276;2022-11-20T22:25:00;44.8;;;27.1;;
67344;SDS011;54230;52.402;6.276;2022-11-20T22:30:00;44.5;;;25.8;;
67344;SDS011;54230;52.402;6.276;2022-11-20T22:35:00;43.7;;;27.4;;
67344;SDS011;54230;52.402;6.276;2022-11-20T22:40:00;41.2;;;23.2;;
67344;SDS011;54230;52.402;6.276;2022-11-20T22:45:00;40.6;;;21.8;;
67344;SDS011;54230;52.402;6.276;2022-11-20T22:50:00;38.7;;;22.2;;
67344;SDS011;54230;52.402;6.276;2022-11-20T22:55:00;43.3;;;24.0;;
67344;SDS011;54230;52.402;6.276;2022-11-20T23:00:00;38.6;;;20.9;;
67344;SDS011;54230;52.402;6.276;2022-11-20T23:05:00;39.7;;;19.8;;
67344;SDS011;54230;52.402;6.276;2022-11-20T23:10:00;38.5;;;22.1;;
67344;SDS011;54230;52.402;6.276;2022-11-20T23:15:00;39.7;;;21.1;;
67344;SDS011;54230;52.402;6.276;2022-11-20T23:20:00;38.1;;;19.6;;
67344;SDS011;54230;52.402;6.276;2022-11-20T23:25:00;33.7;;;15.4;;
67344;SDS011;54230;52.402;6.276;2022-11-20T23:30:00;36.9;;;17.9;;
67344;SDS011;54230;52.402;6.276;2022-11-20T23:35:00;36.9;;;18.1;;
67344;SDS011;54230;52.402;6.276;2022-11-20T23:40:00;39.8;;;20.4;;
67344;SDS011;54230;52.402;6.276;2022-11-20T23:45:00;38.1;;;18.9;;
67344;SDS011;54230;52.402;6.276;2022-11-20T23:50:00;38.5;;;19.2;;
67344;SDS011;54230;52.402;6.276;2022-11-20T23:55:00;38.5;;;19.9;;
